sensor_id;sensor_type;location;lat;lon;timestamp;temperature;humidity
45108;DHT22;30869;51.188;6.556;2022-07-23T09:42:57;23.20;91.30
45108;DHT22;30869;51.188;6.556;2022-07-23T09:45:23;22.90;91.40
45108;DHT22;30869;51.188;6.556;2022-07-23T09:47:48;22.80;91.20
45108;DHT22;30869;51.188;6.556;2022-07-23T09:50:14;23.00;91.10
45108;DHT22;30869;51.188;6.556;2022-07-23T09:52:46;23.00;90.80
45108;DHT22;30869;51.188;6.556;2022-07-23T09:55:14;23.00;91.20
45108;DHT22;30869;51.188;6.556;2022-07-23T09:57:43;23.00;91.20
45108;DHT22;30869;51.188;6.556;2022-07-23T10:00:23;23.00;91.10
45108;DHT22;30869;51.188;6.556;2022-07-23T10:02:49;23.00;90.60
45108;DHT22;30869;51.188;6.556;2022-07-23T10:05:15;22.90;90.40
45108;DHT22;30869;51.188;6.556;2022-07-23T10:07:41;22.90;90.70
45108;DHT22;30869;51.188;6.556;2022-07-23T10:10:08;22.80;90.60
45108;DHT22;30869;51.188;6.556;2022-07-23T10:12:36;22.80;90.80
45108;DHT22;30869;51.188;6.556;2022-07-23T10:15:17;23.00;90.70
45108;DHT22;30869;51.188;6.556;2022-07-23T10:17:43;23.10;91.00
45108;DHT22;30869;51.188;6.556;2022-07-23T10:20:09;23.00;90.50
45108;DHT22;30869;51.188;6.556;2022-07-23T10:22:42;22.80;90.60
45108;DHT22;30869;51.188;6.556;2022-07-23T10:28:08;22.70;90.70
45108;DHT22;30869;51.188;6.556;2022-07-23T10:33:22;22.70;90.20
45108;DHT22;30869;51.188;6.556;2022-07-23T10:36:06;22.80;90.30
45108;DHT22;30869;51.188;6.556;2022-07-23T10:39:04;22.70;90.40
45108;DHT22;30869;51.188;6.556;2022-07-23T10:41:38;22.60;90.50
45108;DHT22;30869;51.188;6.556;2022-07-23T10:44:16;22.70;89.90
45108;DHT22;30869;51.188;6.556;2022-07-23T10:46:54;22.70;90.40
45108;DHT22;30869;51.188;6.556;2022-07-23T10:49:43;22.70;90.20
45108;DHT22;30869;51.188;6.556;2022-07-23T10:52:21;22.80;89.00
45108;DHT22;30869;51.188;6.556;2022-07-23T10:54:53;22.70;90.60
45108;DHT22;30869;51.188;6.556;2022-07-23T10:57:21;22.70;90.30
45108;DHT22;30869;51.188;6.556;2022-07-23T11:02:31;22.90;89.80
45108;DHT22;30869;51.188;6.556;2022-07-23T11:05:05;22.80;88.50
45108;DHT22;30869;51.188;6.556;2022-07-23T11:07:32;22.80;88.80
45108;DHT22;30869;51.188;6.556;2022-07-23T11:09:58;22.80;87.70
45108;DHT22;30869;51.188;6.556;2022-07-23T11:15:10;22.90;89.60
45108;DHT22;30869;51.188;6.556;2022-07-23T11:17:57;22.90;89.20
45108;DHT22;30869;51.188;6.556;2022-07-23T11:20:25;22.90;88.90
45108;DHT22;30869;51.188;6.556;2022-07-23T11:22:55;22.90;88.90
45108;DHT22;30869;51.188;6.556;2022-07-23T11:27:48;22.70;89.90
45108;DHT22;30869;51.188;6.556;2022-07-23T11:35:34;22.80;89.10
45108;DHT22;30869;51.188;6.556;2022-07-23T11:38:19;22.80;85.00
45108;DHT22;30869;51.188;6.556;2022-07-23T11:40:49;22.90;88.40
45108;DHT22;30869;51.188;6.556;2022-07-23T11:43:19;22.90;90.00
45108;DHT22;30869;51.188;6.556;2022-07-23T11:45:47;22.90;89.00
45108;DHT22;30869;51.188;6.556;2022-07-23T11:48:28;23.00;88.30
45108;DHT22;30869;51.188;6.556;2022-07-23T11:50:55;22.90;89.10
45108;DHT22;30869;51.188;6.556;2022-07-23T11:53:32;22.90;89.10
45108;DHT22;30869;51.188;6.556;2022-07-23T11:56:10;23.00;87.70
45108;DHT22;30869;51.188;6.556;2022-07-23T11:58:37;23.00;89.30
45108;DHT22;30869;51.188;6.556;2022-07-23T12:01:04;23.00;89.00
45108;DHT22;30869;51.188;6.556;2022-07-23T12:03:29;23.00;86.80
45108;DHT22;30869;51.188;6.556;2022-07-23T12:05:59;23.00;89.00
45108;DHT22;30869;51.188;6.556;2022-07-23T12:08:25;23.10;88.60
45108;DHT22;30869;51.188;6.556;2022-07-23T12:10:51;23.10;85.50
45108;DHT22;30869;51.188;6.556;2022-07-23T12:13:18;23.20;87.40
45108;DHT22;30869;51.188;6.556;2022-07-23T12:15:49;23.20;87.70
45108;DHT22;30869;51.188;6.556;2022-07-23T12:18:20;23.20;85.40
45108;DHT22;30869;51.188;6.556;2022-07-23T12:20:50;23.30;85.50
45108;DHT22;30869;51.188;6.556;2022-07-23T12:23:18;23.30;84.80
45108;DHT22;30869;51.188;6.556;2022-07-23T12:25:45;23.30;85.20
45108;DHT22;30869;51.188;6.556;2022-07-23T12:28:30;23.40;84.50
45108;DHT22;30869;51.188;6.556;2022-07-23T12:30:58;23.50;88.10
45108;DHT22;30869;51.188;6.556;2022-07-23T12:35:59;23.40;87.90
45108;DHT22;30869;51.188;6.556;2022-07-23T12:38:27;23.50;87.80
45108;DHT22;30869;51.188;6.556;2022-07-23T12:40:58;23.40;87.40
45108;DHT22;30869;51.188;6.556;2022-07-23T12:43:27;23.40;87.20
45108;DHT22;30869;51.188;6.556;2022-07-23T12:48:28;23.50;85.10
45108;DHT22;30869;51.188;6.556;2022-07-23T12:53:25;23.50;84.50
45108;DHT22;30869;51.188;6.556;2022-07-23T12:56:16;23.70;84.70
45108;DHT22;30869;51.188;6.556;2022-07-23T13:06:29;23.90;83.00
45108;DHT22;30869;51.188;6.556;2022-07-23T13:08:56;23.70;84.70
45108;DHT22;30869;51.188;6.556;2022-07-23T13:11:22;23.80;86.50
45108;DHT22;30869;51.188;6.556;2022-07-23T13:13:49;23.80;86.90
45108;DHT22;30869;51.188;6.556;2022-07-23T13:16:15;23.80;86.40
45108;DHT22;30869;51.188;6.556;2022-07-23T13:18:41;23.90;83.10
45108;DHT22;30869;51.188;6.556;2022-07-23T13:21:07;24.10;81.10
45108;DHT22;30869;51.188;6.556;2022-07-23T13:23:33;24.10;82.60
45108;DHT22;30869;51.188;6.556;2022-07-23T13:25:59;24.10;83.40
45108;DHT22;30869;51.188;6.556;2022-07-23T13:28:25;24.20;83.70
45108;DHT22;30869;51.188;6.556;2022-07-23T13:30:51;24.20;80.50
45108;DHT22;30869;51.188;6.556;2022-07-23T13:33:19;24.10;82.60
45108;DHT22;30869;51.188;6.556;2022-07-23T13:35:45;24.20;83.90
45108;DHT22;30869;51.188;6.556;2022-07-23T13:38:12;24.10;84.10
45108;DHT22;30869;51.188;6.556;2022-07-23T13:40:39;24.00;82.50
45108;DHT22;30869;51.188;6.556;2022-07-23T13:43:06;24.20;81.10
45108;DHT22;30869;51.188;6.556;2022-07-23T13:45:33;24.10;81.80
45108;DHT22;30869;51.188;6.556;2022-07-23T13:47:59;24.10;84.70
45108;DHT22;30869;51.188;6.556;2022-07-23T13:50:25;24.10;85.20
45108;DHT22;30869;51.188;6.556;2022-07-23T13:52:51;24.20;83.90
45108;DHT22;30869;51.188;6.556;2022-07-23T13:55:17;24.10;85.60
45108;DHT22;30869;51.188;6.556;2022-07-23T13:57:42;24.10;85.70
45108;DHT22;30869;51.188;6.556;2022-07-23T14:00:10;24.10;85.80
45108;DHT22;30869;51.188;6.556;2022-07-23T14:02:38;24.10;84.70
45108;DHT22;30869;51.188;6.556;2022-07-23T14:05:05;24.10;84.40
45108;DHT22;30869;51.188;6.556;2022-07-23T14:07:32;24.10;86.10
45108;DHT22;30869;51.188;6.556;2022-07-23T14:09:57;24.10;85.90
45108;DHT22;30869;51.188;6.556;2022-07-23T14:12:23;24.10;85.80
45108;DHT22;30869;51.188;6.556;2022-07-23T14:14:49;24.10;86.60
45108;DHT22;30869;51.188;6.556;2022-07-23T14:17:15;24.10;86.50
45108;DHT22;30869;51.188;6.556;2022-07-23T14:19:40;24.20;81.10
45108;DHT22;30869;51.188;6.556;2022-07-23T14:22:06;24.20;85.40
45108;DHT22;30869;51.188;6.556;2022-07-23T14:24:32;24.10;84.70
45108;DHT22;30869;51.188;6.556;2022-07-23T14:27:00;24.20;83.90
45108;DHT22;30869;51.188;6.556;2022-07-23T14:29:27;24.20;84.40
45108;DHT22;30869;51.188;6.556;2022-07-23T14:31:52;24.40;81.80
45108;DHT22;30869;51.188;6.556;2022-07-23T14:34:18;24.20;84.50
45108;DHT22;30869;51.188;6.556;2022-07-23T14:36:44;24.20;83.00
45108;DHT22;30869;51.188;6.556;2022-07-23T14:39:10;24.20;85.60
45108;DHT22;30869;51.188;6.556;2022-07-23T14:41:38;24.40;83.30
45108;DHT22;30869;51.188;6.556;2022-07-23T14:44:03;24.40;82.30
45108;DHT22;30869;51.188;6.556;2022-07-23T14:46:30;24.40;85.90
45108;DHT22;30869;51.188;6.556;2022-07-23T14:49:00;24.40;83.90
45108;DHT22;30869;51.188;6.556;2022-07-23T14:51:35;24.40;85.20
45108;DHT22;30869;51.188;6.556;2022-07-23T14:54:03;24.30;79.30
45108;DHT22;30869;51.188;6.556;2022-07-23T14:56:29;24.40;85.20
45108;DHT22;30869;51.188;6.556;2022-07-23T14:58:55;24.30;79.30
45108;DHT22;30869;51.188;6.556;2022-07-23T15:01:23;24.40;81.00
45108;DHT22;30869;51.188;6.556;2022-07-23T15:03:49;24.50;79.60
45108;DHT22;30869;51.188;6.556;2022-07-23T15:06:16;24.60;85.70
45108;DHT22;30869;51.188;6.556;2022-07-23T15:08:43;24.40;81.90
45108;DHT22;30869;51.188;6.556;2022-07-23T15:11:08;24.40;84.50
45108;DHT22;30869;51.188;6.556;2022-07-23T15:13:37;24.40;83.50
45108;DHT22;30869;51.188;6.556;2022-07-23T15:16:03;24.30;84.10
45108;DHT22;30869;51.188;6.556;2022-07-23T15:18:30;24.30;84.40
45108;DHT22;30869;51.188;6.556;2022-07-23T15:20:56;24.20;86.00
45108;DHT22;30869;51.188;6.556;2022-07-23T15:23:22;24.20;86.70
45108;DHT22;30869;51.188;6.556;2022-07-23T15:25:48;24.30;83.70
45108;DHT22;30869;51.188;6.556;2022-07-23T15:28:14;24.20;86.50
45108;DHT22;30869;51.188;6.556;2022-07-23T15:30:40;24.20;86.20
45108;DHT22;30869;51.188;6.556;2022-07-23T15:33:06;24.20;82.20
45108;DHT22;30869;51.188;6.556;2022-07-23T15:35:32;24.20;85.50
45108;DHT22;30869;51.188;6.556;2022-07-23T15:37:58;24.40;85.70
45108;DHT22;30869;51.188;6.556;2022-07-23T15:40:24;24.20;79.80
45108;DHT22;30869;51.188;6.556;2022-07-23T15:42:50;24.10;85.60
45108;DHT22;30869;51.188;6.556;2022-07-23T15:45:16;24.10;86.50
45108;DHT22;30869;51.188;6.556;2022-07-23T15:47:42;24.20;82.60
45108;DHT22;30869;51.188;6.556;2022-07-23T15:50:08;24.10;85.70
45108;DHT22;30869;51.188;6.556;2022-07-23T15:52:35;24.10;87.30
45108;DHT22;30869;51.188;6.556;2022-07-23T15:55:02;24.10;85.60
45108;DHT22;30869;51.188;6.556;2022-07-23T15:57:28;24.10;85.80
45108;DHT22;30869;51.188;6.556;2022-07-23T15:59:53;24.10;83.30
45108;DHT22;30869;51.188;6.556;2022-07-23T16:02:22;24.10;84.10
45108;DHT22;30869;51.188;6.556;2022-07-23T16:04:48;24.10;84.90
45108;DHT22;30869;51.188;6.556;2022-07-23T16:07:16;24.10;85.90
45108;DHT22;30869;51.188;6.556;2022-07-23T16:09:42;24.00;86.50
45108;DHT22;30869;51.188;6.556;2022-07-23T16:12:08;24.10;87.10
45108;DHT22;30869;51.188;6.556;2022-07-23T16:14:34;24.10;87.20
45108;DHT22;30869;51.188;6.556;2022-07-23T16:17:00;24.10;85.20
45108;DHT22;30869;51.188;6.556;2022-07-23T16:19:26;24.20;81.50
45108;DHT22;30869;51.188;6.556;2022-07-23T16:21:52;24.30;84.80
45108;DHT22;30869;51.188;6.556;2022-07-23T16:24:18;24.50;83.60
45108;DHT22;30869;51.188;6.556;2022-07-23T16:26:44;24.40;86.90
45108;DHT22;30869;51.188;6.556;2022-07-23T16:29:10;24.40;86.60
45108;DHT22;30869;51.188;6.556;2022-07-23T16:31:35;24.40;85.90
45108;DHT22;30869;51.188;6.556;2022-07-23T16:34:01;24.40;84.50
45108;DHT22;30869;51.188;6.556;2022-07-23T16:36:28;24.30;84.50
45108;DHT22;30869;51.188;6.556;2022-07-23T16:38:54;24.30;84.30
45108;DHT22;30869;51.188;6.556;2022-07-23T16:41:20;24.50;86.80
45108;DHT22;30869;51.188;6.556;2022-07-23T16:43:45;24.30;82.20
45108;DHT22;30869;51.188;6.556;2022-07-23T16:46:11;24.20;80.00
45108;DHT22;30869;51.188;6.556;2022-07-23T16:48:37;24.00;85.70
45108;DHT22;30869;51.188;6.556;2022-07-23T16:51:04;24.20;85.10
45108;DHT22;30869;51.188;6.556;2022-07-23T16:53:29;24.20;85.20
45108;DHT22;30869;51.188;6.556;2022-07-23T16:55:55;24.30;85.20
45108;DHT22;30869;51.188;6.556;2022-07-23T16:58:21;24.10;85.70
45108;DHT22;30869;51.188;6.556;2022-07-23T17:00:47;24.30;85.10
45108;DHT22;30869;51.188;6.556;2022-07-23T17:03:13;24.10;84.30
45108;DHT22;30869;51.188;6.556;2022-07-23T17:05:39;24.30;84.80
45108;DHT22;30869;51.188;6.556;2022-07-23T17:08:05;24.40;85.60
45108;DHT22;30869;51.188;6.556;2022-07-23T17:10:31;24.40;85.00
45108;DHT22;30869;51.188;6.556;2022-07-23T17:12:56;24.40;83.10
45108;DHT22;30869;51.188;6.556;2022-07-23T17:15:23;24.50;84.60
45108;DHT22;30869;51.188;6.556;2022-07-23T17:17:49;24.50;85.30
45108;DHT22;30869;51.188;6.556;2022-07-23T17:20:15;24.40;85.50
45108;DHT22;30869;51.188;6.556;2022-07-23T17:22:42;24.40;85.60
45108;DHT22;30869;51.188;6.556;2022-07-23T17:25:08;24.50;85.30
45108;DHT22;30869;51.188;6.556;2022-07-23T17:27:40;24.30;85.40
45108;DHT22;30869;51.188;6.556;2022-07-23T17:30:06;24.40;85.90
45108;DHT22;30869;51.188;6.556;2022-07-23T17:32:32;24.50;86.00
45108;DHT22;30869;51.188;6.556;2022-07-23T17:34:58;24.30;81.50
45108;DHT22;30869;51.188;6.556;2022-07-23T17:37:23;24.40;82.20
45108;DHT22;30869;51.188;6.556;2022-07-23T17:39:49;24.50;83.40
45108;DHT22;30869;51.188;6.556;2022-07-23T17:42:23;24.30;85.10
45108;DHT22;30869;51.188;6.556;2022-07-23T17:44:51;24.50;84.80
45108;DHT22;30869;51.188;6.556;2022-07-23T17:47:17;24.50;85.00
45108;DHT22;30869;51.188;6.556;2022-07-23T17:49:43;24.60;79.20
45108;DHT22;30869;51.188;6.556;2022-07-23T17:52:09;24.50;85.20
45108;DHT22;30869;51.188;6.556;2022-07-23T17:54:35;24.50;84.20
45108;DHT22;30869;51.188;6.556;2022-07-23T17:57:01;24.50;85.40
45108;DHT22;30869;51.188;6.556;2022-07-23T17:59:27;24.50;85.60
45108;DHT22;30869;51.188;6.556;2022-07-23T18:01:53;24.50;80.80
45108;DHT22;30869;51.188;6.556;2022-07-23T18:04:20;24.50;85.60
45108;DHT22;30869;51.188;6.556;2022-07-23T18:06:46;24.50;85.00
45108;DHT22;30869;51.188;6.556;2022-07-23T18:09:12;24.70;82.80
45108;DHT22;30869;51.188;6.556;2022-07-23T18:11:39;24.40;86.90
45108;DHT22;30869;51.188;6.556;2022-07-23T18:14:07;24.40;86.60
45108;DHT22;30869;51.188;6.556;2022-07-23T18:16:33;24.40;85.40
45108;DHT22;30869;51.188;6.556;2022-07-23T18:19:00;24.40;86.60
45108;DHT22;30869;51.188;6.556;2022-07-23T18:21:26;24.40;85.30
45108;DHT22;30869;51.188;6.556;2022-07-23T18:23:52;24.50;86.80
45108;DHT22;30869;51.188;6.556;2022-07-23T18:26:18;24.30;86.40
45108;DHT22;30869;51.188;6.556;2022-07-23T18:28:47;24.40;87.10
45108;DHT22;30869;51.188;6.556;2022-07-23T18:31:13;24.50;87.20
45108;DHT22;30869;51.188;6.556;2022-07-23T18:33:39;24.40;86.80
45108;DHT22;30869;51.188;6.556;2022-07-23T18:36:05;24.40;87.20
45108;DHT22;30869;51.188;6.556;2022-07-23T18:38:31;24.40;87.30
45108;DHT22;30869;51.188;6.556;2022-07-23T18:40:58;24.40;85.20
45108;DHT22;30869;51.188;6.556;2022-07-23T18:43:24;24.40;86.20
45108;DHT22;30869;51.188;6.556;2022-07-23T18:45:50;24.30;88.20
45108;DHT22;30869;51.188;6.556;2022-07-23T18:48:19;24.20;88.30
45108;DHT22;30869;51.188;6.556;2022-07-23T18:50:45;24.30;88.50
45108;DHT22;30869;51.188;6.556;2022-07-23T18:55:56;24.30;88.90
45108;DHT22;30869;51.188;6.556;2022-07-23T18:58:22;24.20;87.80
45108;DHT22;30869;51.188;6.556;2022-07-23T19:00:48;24.20;88.80
45108;DHT22;30869;51.188;6.556;2022-07-23T19:03:14;24.20;88.70
45108;DHT22;30869;51.188;6.556;2022-07-23T19:05:39;24.20;88.80
45108;DHT22;30869;51.188;6.556;2022-07-23T19:08:05;24.20;89.30
45108;DHT22;30869;51.188;6.556;2022-07-23T19:10:36;24.10;89.60
45108;DHT22;30869;51.188;6.556;2022-07-23T19:13:03;24.00;89.70
45108;DHT22;30869;51.188;6.556;2022-07-23T19:15:29;24.10;89.90
45108;DHT22;30869;51.188;6.556;2022-07-23T19:17:55;24.10;90.00
45108;DHT22;30869;51.188;6.556;2022-07-23T19:20:20;24.20;90.00
45108;DHT22;30869;51.188;6.556;2022-07-23T19:22:46;24.10;90.10
45108;DHT22;30869;51.188;6.556;2022-07-23T19:25:19;24.10;90.20
45108;DHT22;30869;51.188;6.556;2022-07-23T19:27:47;24.00;90.30
45108;DHT22;30869;51.188;6.556;2022-07-23T19:30:13;24.00;90.70
45108;DHT22;30869;51.188;6.556;2022-07-23T19:32:39;23.90;90.50
45108;DHT22;30869;51.188;6.556;2022-07-23T19:35:08;23.90;90.60
45108;DHT22;30869;51.188;6.556;2022-07-23T19:37:34;23.80;90.70
45108;DHT22;30869;51.188;6.556;2022-07-23T19:40:01;23.90;90.80
45108;DHT22;30869;51.188;6.556;2022-07-23T19:42:30;23.90;90.80
45108;DHT22;30869;51.188;6.556;2022-07-23T19:44:56;23.80;90.80
45108;DHT22;30869;51.188;6.556;2022-07-23T19:47:21;23.90;90.80
45108;DHT22;30869;51.188;6.556;2022-07-23T19:49:47;23.90;90.80
45108;DHT22;30869;51.188;6.556;2022-07-23T19:52:13;24.20;90.80
45108;DHT22;30869;51.188;6.556;2022-07-23T19:54:38;24.00;90.70
45108;DHT22;30869;51.188;6.556;2022-07-23T19:57:04;24.00;90.80
45108;DHT22;30869;51.188;6.556;2022-07-23T19:59:31;24.00;90.80
45108;DHT22;30869;51.188;6.556;2022-07-23T20:01:56;24.00;90.70
45108;DHT22;30869;51.188;6.556;2022-07-23T20:04:22;24.00;90.80
45108;DHT22;30869;51.188;6.556;2022-07-23T20:06:47;24.00;90.80
45108;DHT22;30869;51.188;6.556;2022-07-23T20:09:13;24.20;91.20
45108;DHT22;30869;51.188;6.556;2022-07-23T20:11:39;24.10;90.80
45108;DHT22;30869;51.188;6.556;2022-07-23T20:14:04;24.10;90.80
45108;DHT22;30869;51.188;6.556;2022-07-23T20:16:30;24.10;90.90
45108;DHT22;30869;51.188;6.556;2022-07-23T20:18:56;24.10;90.80
45108;DHT22;30869;51.188;6.556;2022-07-23T20:21:22;24.10;90.80
45108;DHT22;30869;51.188;6.556;2022-07-23T20:23:47;24.10;90.80
45108;DHT22;30869;51.188;6.556;2022-07-23T20:26:13;24.20;90.80
45108;DHT22;30869;51.188;6.556;2022-07-23T20:28:38;24.20;90.90
45108;DHT22;30869;51.188;6.556;2022-07-23T20:31:04;24.10;91.00
45108;DHT22;30869;51.188;6.556;2022-07-23T20:33:30;24.10;90.90
45108;DHT22;30869;51.188;6.556;2022-07-23T20:35:57;24.10;91.00
45108;DHT22;30869;51.188;6.556;2022-07-23T20:38:23;24.10;91.10
45108;DHT22;30869;51.188;6.556;2022-07-23T20:40:49;24.10;91.10
45108;DHT22;30869;51.188;6.556;2022-07-23T20:43:15;24.10;91.10
45108;DHT22;30869;51.188;6.556;2022-07-23T20:45:42;24.10;91.10
45108;DHT22;30869;51.188;6.556;2022-07-23T20:48:08;24.00;91.20
45108;DHT22;30869;51.188;6.556;2022-07-23T20:50:34;24.10;91.20
45108;DHT22;30869;51.188;6.556;2022-07-23T20:53:03;24.00;91.20
45108;DHT22;30869;51.188;6.556;2022-07-23T20:55:29;24.10;91.20
45108;DHT22;30869;51.188;6.556;2022-07-23T20:57:54;24.10;91.30
45108;DHT22;30869;51.188;6.556;2022-07-23T21:00:20;24.10;91.20
45108;DHT22;30869;51.188;6.556;2022-07-23T21:02:46;24.10;91.30
45108;DHT22;30869;51.188;6.556;2022-07-23T21:05:12;24.10;91.30
45108;DHT22;30869;51.188;6.556;2022-07-23T21:07:37;24.10;91.30
45108;DHT22;30869;51.188;6.556;2022-07-23T21:10:03;24.00;91.30
45108;DHT22;30869;51.188;6.556;2022-07-23T21:12:29;24.00;91.30
45108;DHT22;30869;51.188;6.556;2022-07-23T21:14:55;23.90;91.30
45108;DHT22;30869;51.188;6.556;2022-07-23T21:17:21;24.10;91.40
45108;DHT22;30869;51.188;6.556;2022-07-23T21:19:47;24.10;91.40
45108;DHT22;30869;51.188;6.556;2022-07-23T21:22:12;24.00;91.40
45108;DHT22;30869;51.188;6.556;2022-07-23T21:24:38;24.00;91.50
45108;DHT22;30869;51.188;6.556;2022-07-23T21:27:05;24.00;91.50
45108;DHT22;30869;51.188;6.556;2022-07-23T21:29:30;24.00;91.50
45108;DHT22;30869;51.188;6.556;2022-07-23T21:31:57;23.80;91.50
45108;DHT22;30869;51.188;6.556;2022-07-23T21:34:24;23.90;91.50
45108;DHT22;30869;51.188;6.556;2022-07-23T21:36:50;23.90;91.50
45108;DHT22;30869;51.188;6.556;2022-07-23T21:39:17;24.00;91.60
45108;DHT22;30869;51.188;6.556;2022-07-23T21:41:43;24.00;91.60
45108;DHT22;30869;51.188;6.556;2022-07-23T21:44:09;24.00;91.60
45108;DHT22;30869;51.188;6.556;2022-07-23T21:46:35;24.00;91.50
45108;DHT22;30869;51.188;6.556;2022-07-23T21:49:02;24.00;91.50
45108;DHT22;30869;51.188;6.556;2022-07-23T21:51:28;24.00;91.60
45108;DHT22;30869;51.188;6.556;2022-07-23T21:53:54;23.90;91.60
45108;DHT22;30869;51.188;6.556;2022-07-23T21:56:20;23.90;91.70
45108;DHT22;30869;51.188;6.556;2022-07-23T21:58:46;23.90;91.80
45108;DHT22;30869;51.188;6.556;2022-07-23T22:01:12;23.90;91.80
45108;DHT22;30869;51.188;6.556;2022-07-23T22:03:51;23.80;91.80
45108;DHT22;30869;51.188;6.556;2022-07-23T22:06:20;23.80;91.80
45108;DHT22;30869;51.188;6.556;2022-07-23T22:08:46;23.90;91.80
45108;DHT22;30869;51.188;6.556;2022-07-23T22:11:11;23.80;91.80
45108;DHT22;30869;51.188;6.556;2022-07-23T22:13:37;23.80;91.80
45108;DHT22;30869;51.188;6.556;2022-07-23T22:16:03;23.90;91.80
45108;DHT22;30869;51.188;6.556;2022-07-23T22:18:29;23.90;91.80
45108;DHT22;30869;51.188;6.556;2022-07-23T22:20:55;24.00;91.80
45108;DHT22;30869;51.188;6.556;2022-07-23T22:23:20;23.90;91.80
45108;DHT22;30869;51.188;6.556;2022-07-23T22:25:46;23.90;91.80
45108;DHT22;30869;51.188;6.556;2022-07-23T22:28:12;23.90;91.80
45108;DHT22;30869;51.188;6.556;2022-07-23T22:30:38;23.90;91.90
45108;DHT22;30869;51.188;6.556;2022-07-23T22:33:04;23.80;91.80
45108;DHT22;30869;51.188;6.556;2022-07-23T22:35:30;23.80;91.90
45108;DHT22;30869;51.188;6.556;2022-07-23T22:37:55;23.80;91.90
45108;DHT22;30869;51.188;6.556;2022-07-23T22:40:21;23.80;91.90
45108;DHT22;30869;51.188;6.556;2022-07-23T22:42:47;23.80;91.90
45108;DHT22;30869;51.188;6.556;2022-07-23T22:45:12;23.80;91.90
45108;DHT22;30869;51.188;6.556;2022-07-23T22:47:39;23.80;91.90
45108;DHT22;30869;51.188;6.556;2022-07-23T22:50:05;23.70;91.90
45108;DHT22;30869;51.188;6.556;2022-07-23T22:52:31;23.80;92.00
45108;DHT22;30869;51.188;6.556;2022-07-23T22:54:58;23.80;92.00
45108;DHT22;30869;51.188;6.556;2022-07-23T22:57:24;23.80;92.00
45108;DHT22;30869;51.188;6.556;2022-07-23T22:59:50;23.70;92.00
45108;DHT22;30869;51.188;6.556;2022-07-23T23:02:16;23.80;92.00
45108;DHT22;30869;51.188;6.556;2022-07-23T23:04:42;23.70;92.00
45108;DHT22;30869;51.188;6.556;2022-07-23T23:07:08;23.70;92.00
45108;DHT22;30869;51.188;6.556;2022-07-23T23:09:34;23.70;92.00
45108;DHT22;30869;51.188;6.556;2022-07-23T23:11:59;23.70;92.00
45108;DHT22;30869;51.188;6.556;2022-07-23T23:14:25;23.70;92.00
45108;DHT22;30869;51.188;6.556;2022-07-23T23:16:51;23.70;92.10
45108;DHT22;30869;51.188;6.556;2022-07-23T23:19:16;23.60;92.10
45108;DHT22;30869;51.188;6.556;2022-07-23T23:21:42;23.60;92.20
45108;DHT22;30869;51.188;6.556;2022-07-23T23:24:08;23.60;92.20
45108;DHT22;30869;51.188;6.556;2022-07-23T23:26:34;23.60;92.20
45108;DHT22;30869;51.188;6.556;2022-07-23T23:29:00;23.60;92.20
45108;DHT22;30869;51.188;6.556;2022-07-23T23:31:26;23.60;92.20
45108;DHT22;30869;51.188;6.556;2022-07-23T23:33:52;23.70;92.30
45108;DHT22;30869;51.188;6.556;2022-07-23T23:36:17;23.60;92.30
45108;DHT22;30869;51.188;6.556;2022-07-23T23:38:43;23.50;92.30
45108;DHT22;30869;51.188;6.556;2022-07-23T23:41:09;23.50;92.30
45108;DHT22;30869;51.188;6.556;2022-07-23T23:43:34;23.50;92.40
45108;DHT22;30869;51.188;6.556;2022-07-23T23:46:00;23.50;92.30
45108;DHT22;30869;51.188;6.556;2022-07-23T23:48:26;23.50;92.30
45108;DHT22;30869;51.188;6.556;2022-07-23T23:50:51;23.50;92.30
45108;DHT22;30869;51.188;6.556;2022-07-23T23:53:17;23.40;92.30
45108;DHT22;30869;51.188;6.556;2022-07-23T23:55:43;23.50;92.30
45108;DHT22;30869;51.188;6.556;2022-07-23T23:58:09;23.50;92.40
